Time;durP1;ratioP1;P1;durP2;ratioP2;P2;SDS_P1;SDS_P2;PMS_P1;PMS_P2;Temp;Humidity;BMP_temperature;BMP_pressure;BME280_temperature;BME280_humidity;BME280_pressure;Samples;Min_cycle;Max_cycle;Signal;HPM_P1;HPM_P2
2023/02/25 00:02:05;;;;;;;1.70;0.80;;;7.00;99.90;;;;;;5074970;28;20426;-58
2023/02/25 00:04:32;;;;;;;1.60;0.80;;;7.20;99.90;;;;;;5075188;28;20428;-59
2023/02/25 00:06:59;;;;;;;1.70;0.70;;;7.30;99.90;;;;;;5074622;28;20590;-56
2023/02/25 00:09:28;;;;;;;1.38;0.90;;;7.10;99.90;;;;;;5072408;28;20866;-59
2023/02/25 00:11:55;;;;;;;1.30;0.80;;;7.10;99.90;;;;;;5073427;28;20415;-58
2023/02/25 00:14:22;;;;;;;2.50;1.00;;;7.20;99.90;;;;;;5075404;28;20431;-59
2023/02/25 00:16:50;;;;;;;1.30;0.90;;;7.20;99.90;;;;;;5076407;28;20486;-58
2023/02/25 00:19:17;;;;;;;2.00;0.90;;;7.10;99.90;;;;;;5075966;28;20723;-58
2023/02/25 00:21:44;;;;;;;1.40;0.82;;;6.90;99.90;;;;;;5076071;28;20415;-59
2023/02/25 00:24:11;;;;;;;3.10;0.90;;;7.10;99.90;;;;;;5075693;28;20426;-58
2023/02/25 00:26:39;;;;;;;1.63;0.90;;;7.20;99.90;;;;;;5075089;28;20451;-59
2023/02/25 00:29:07;;;;;;;1.70;0.80;;;7.20;99.90;;;;;;5075400;28;20427;-60
2023/02/25 00:31:34;;;;;;;1.80;0.90;;;7.20;99.90;;;;;;5076525;28;20727;-57
2023/02/25 00:34:01;;;;;;;2.20;0.90;;;7.10;99.90;;;;;;5075755;28;20420;-60
2023/02/25 00:36:28;;;;;;;3.17;1.00;;;7.10;99.90;;;;;;5076402;28;20419;-59
2023/02/25 00:38:57;;;;;;;1.95;1.10;;;7.00;99.90;;;;;;5075529;28;20420;-59
2023/02/25 00:41:26;;;;;;;2.10;0.90;;;6.90;99.90;;;;;;5074867;28;20727;-59
2023/02/25 00:43:57;;;;;;;2.10;1.10;;;6.90;99.90;;;;;;5074727;28;20605;-58
2023/02/25 00:46:24;;;;;;;1.83;0.90;;;6.80;99.90;;;;;;5076191;28;20431;-58
2023/02/25 00:48:52;;;;;;;2.70;1.00;;;6.50;99.90;;;;;;5074261;28;20438;-59
2023/02/25 00:51:20;;;;;;;2.60;1.10;;;6.50;99.90;;;;;;5075316;28;20473;-60
2023/02/25 00:53:47;;;;;;;1.55;1.00;;;6.40;99.90;;;;;;5074729;28;20420;-59
2023/02/25 00:56:16;;;;;;;2.20;1.10;;;6.40;99.90;;;;;;5075176;28;20493;-59
2023/02/25 00:58:44;;;;;;;2.13;1.00;;;6.40;99.90;;;;;;5075501;28;20423;-58
2023/02/25 01:01:19;;;;;;;2.35;1.00;;;6.40;99.90;;;;;;5075339;28;20438;-58
2023/02/25 01:03:46;;;;;;;1.92;1.00;;;6.50;99.90;;;;;;5075127;28;20427;-59
2023/02/25 01:06:13;;;;;;;3.55;1.00;;;6.80;99.90;;;;;;5076348;28;20428;-58
2023/02/25 01:08:40;;;;;;;1.83;1.00;;;6.90;99.90;;;;;;5074373;28;20518;-59
2023/02/25 01:11:14;;;;;;;1.63;0.90;;;6.80;99.90;;;;;;5074514;28;20774;-59
2023/02/25 01:13:41;;;;;;;1.63;1.00;;;6.50;99.90;;;;;;5074461;28;20463;-59
2023/02/25 01:16:13;;;;;;;1.77;0.90;;;6.40;99.90;;;;;;5074663;28;20427;-59
2023/02/25 01:18:42;;;;;;;1.90;0.90;;;6.50;99.90;;;;;;5074393;28;20423;-58
2023/02/25 01:21:16;;;;;;;2.00;0.80;;;6.60;99.90;;;;;;5074485;28;20502;-58
2023/02/25 01:23:44;;;;;;;1.80;0.80;;;6.80;99.90;;;;;;5074602;28;20419;-58
2023/02/25 01:26:11;;;;;;;2.20;0.90;;;6.70;99.90;;;;;;5075556;28;20431;-59
2023/02/25 01:28:38;;;;;;;2.20;0.80;;;6.60;99.90;;;;;;5075543;28;20419;-53
2023/02/25 01:31:07;;;;;;;1.40;0.90;;;6.80;99.90;;;;;;5075225;28;20435;-58
2023/02/25 01:33:37;;;;;;;2.35;0.80;;;6.90;99.90;;;;;;5075483;28;20484;-58
2023/02/25 01:36:06;;;;;;;1.60;0.70;;;7.10;99.90;;;;;;5075188;28;20481;-57
2023/02/25 01:38:33;;;;;;;1.60;0.75;;;7.00;99.90;;;;;;5074405;28;20945;-58
2023/02/25 01:41:01;;;;;;;1.40;0.80;;;6.50;99.90;;;;;;5074916;28;20427;-59
2023/02/25 01:43:29;;;;;;;1.42;0.70;;;6.30;99.90;;;;;;5075019;28;20427;-59
2023/02/25 01:45:57;;;;;;;1.10;0.70;;;6.50;99.90;;;;;;5075028;28;20427;-59
2023/02/25 01:48:26;;;;;;;1.00;0.60;;;6.70;99.90;;;;;;5074141;28;20423;-59
2023/02/25 01:50:56;;;;;;;1.10;0.60;;;6.70;99.90;;;;;;5075362;28;20458;-59
2023/02/25 01:53:30;;;;;;;0.90;0.60;;;6.70;99.90;;;;;;5075170;28;20885;-58
2023/02/25 01:55:59;;;;;;;1.50;0.60;;;6.70;99.90;;;;;;5073732;28;20606;-57
2023/02/25 01:58:29;;;;;;;1.40;0.60;;;6.80;99.90;;;;;;5074540;28;20438;-57
2023/02/25 02:00:56;;;;;;;1.63;0.60;;;6.80;99.90;;;;;;5075138;28;20423;-56
2023/02/25 02:03:26;;;;;;;1.20;0.60;;;6.70;99.90;;;;;;5073459;28;20424;-57
2023/02/25 02:06:00;;;;;;;0.80;0.50;;;6.70;99.90;;;;;;5075314;28;20423;-56
2023/02/25 02:08:30;;;;;;;1.13;0.52;;;6.90;99.90;;;;;;5074287;28;20420;-59
2023/02/25 02:10:57;;;;;;;1.45;0.60;;;6.80;99.90;;;;;;5075358;28;20431;-56
2023/02/25 02:13:25;;;;;;;1.10;0.60;;;6.80;99.90;;;;;;5074878;28;20420;-58
2023/02/25 02:16:03;;;;;;;0.88;0.50;;;6.70;99.90;;;;;;5075185;28;20428;-57
2023/02/25 02:18:35;;;;;;;1.40;0.60;;;6.40;99.90;;;;;;5075330;28;20419;-57
2023/02/25 02:21:20;;;;;;;0.90;0.50;;;6.50;99.90;;;;;;5075139;28;20427;-58
2023/02/25 02:24:22;;;;;;;1.00;0.50;;;6.50;99.90;;;;;;5075057;28;20415;-57
2023/02/25 02:27:02;;;;;;;2.20;0.70;;;6.80;99.90;;;;;;5075257;28;20469;-57
2023/02/25 02:30:00;;;;;;;1.20;0.50;;;6.70;99.90;;;;;;5074611;28;20528;-58
2023/02/25 02:32:35;;;;;;;1.70;0.60;;;6.80;99.90;;;;;;5074967;28;20726;-59
2023/02/25 02:35:13;;;;;;;1.10;0.60;;;6.80;99.90;;;;;;5075101;28;20431;-58
2023/02/25 02:37:46;;;;;;;0.80;0.50;;;6.90;99.90;;;;;;5075080;28;20420;-53
2023/02/25 02:40:22;;;;;;;1.30;0.50;;;7.00;99.90;;;;;;5073675;28;20423;-50
2023/02/25 02:43:03;;;;;;;1.15;0.50;;;7.00;99.90;;;;;;5074588;28;20427;-55
2023/02/25 02:45:38;;;;;;;1.33;0.60;;;6.90;99.90;;;;;;5072908;28;20743;-52
2023/02/25 02:48:10;;;;;;;1.13;0.60;;;6.80;99.90;;;;;;5074130;28;20433;-55
2023/02/25 02:50:42;;;;;;;2.00;0.60;;;6.90;99.90;;;;;;5074793;28;20454;-55
2023/02/25 02:53:13;;;;;;;3.90;0.70;;;6.80;99.90;;;;;;5074382;28;20431;-53
2023/02/25 02:55:43;;;;;;;1.20;0.60;;;6.50;99.90;;;;;;5074540;28;20435;-54
2023/02/25 02:58:17;;;;;;;1.67;0.60;;;6.40;99.90;;;;;;5075135;28;20420;-54
2023/02/25 03:00:48;;;;;;;2.60;0.60;;;6.40;99.90;;;;;;5074429;28;20423;-56
2023/02/25 03:03:19;;;;;;;1.10;0.63;;;6.50;99.90;;;;;;5073744;28;20843;-54
2023/02/25 03:05:54;;;;;;;0.90;0.60;;;6.50;99.90;;;;;;5073476;28;20885;-56
2023/02/25 03:08:25;;;;;;;1.20;0.60;;;6.40;99.90;;;;;;5074269;28;20423;-56
2023/02/25 03:10:52;;;;;;;1.30;0.60;;;6.60;99.90;;;;;;5074095;28;20922;-56
2023/02/25 03:13:19;;;;;;;0.98;0.60;;;6.60;99.90;;;;;;5075056;28;20434;-54
2023/02/25 03:15:48;;;;;;;1.40;0.60;;;6.60;99.90;;;;;;5074343;28;20428;-57
2023/02/25 03:18:24;;;;;;;1.20;0.60;;;6.30;99.90;;;;;;5073884;28;20427;-54
2023/02/25 03:20:54;;;;;;;1.00;0.60;;;6.20;99.90;;;;;;5077223;28;20427;-56
2023/02/25 03:23:27;;;;;;;1.33;0.60;;;6.30;99.90;;;;;;5078259;28;20419;-55
2023/02/25 03:25:59;;;;;;;1.50;0.50;;;6.30;99.90;;;;;;5078408;28;20427;-59
2023/02/25 03:28:29;;;;;;;1.30;0.50;;;6.50;99.90;;;;;;5077968;28;20423;-53
2023/02/25 03:31:05;;;;;;;0.90;0.50;;;6.60;99.90;;;;;;5078026;28;20793;-55
2023/02/25 03:33:39;;;;;;;1.10;0.50;;;6.70;99.90;;;;;;5078227;28;20892;-53
2023/02/25 03:36:12;;;;;;;0.90;0.60;;;6.60;99.90;;;;;;5078599;28;20548;-54
2023/02/25 03:38:44;;;;;;;1.00;0.50;;;6.40;99.90;;;;;;5078330;28;20930;-53
2023/02/25 03:41:14;;;;;;;1.10;0.40;;;6.40;99.90;;;;;;5077181;28;20713;-53
2023/02/25 03:43:45;;;;;;;1.60;0.50;;;6.50;99.90;;;;;;5078091;28;20716;-53
2023/02/25 03:46:13;;;;;;;1.25;0.60;;;6.40;99.90;;;;;;5078032;28;20850;-49
2023/02/25 03:48:43;;;;;;;0.80;0.40;;;6.30;99.90;;;;;;5077589;28;20981;-53
2023/02/25 03:51:10;;;;;;;0.82;0.40;;;6.40;99.90;;;;;;5077272;28;20480;-54
2023/02/25 03:53:37;;;;;;;1.20;0.40;;;6.40;99.90;;;;;;5077333;28;20428;-55
2023/02/25 03:56:08;;;;;;;2.10;0.40;;;6.60;99.90;;;;;;5077507;28;20426;-56
2023/02/25 03:58:36;;;;;;;0.52;0.30;;;6.50;99.90;;;;;;5078139;28;20831;-54
2023/02/25 04:01:07;;;;;;;0.93;0.40;;;6.50;99.90;;;;;;5077857;28;20435;-54
2023/02/25 04:03:34;;;;;;;0.82;0.40;;;6.20;99.90;;;;;;5077282;28;20446;-53
2023/02/25 04:06:03;;;;;;;0.80;0.40;;;6.10;99.90;;;;;;5077789;28;20434;-56
2023/02/25 04:08:30;;;;;;;1.10;0.40;;;6.30;99.90;;;;;;5077643;28;20427;-54
2023/02/25 04:10:57;;;;;;;1.00;0.40;;;6.40;99.90;;;;;;5077692;28;20442;-51
2023/02/25 04:13:24;;;;;;;0.60;0.30;;;6.50;99.90;;;;;;5077265;28;20420;-52
2023/02/25 04:15:51;;;;;;;0.80;0.40;;;6.50;99.90;;;;;;5078080;28;20426;-55
2023/02/25 04:18:18;;;;;;;0.60;0.30;;;6.50;99.90;;;;;;5077624;28;20427;-50
2023/02/25 04:20:45;;;;;;;1.60;0.30;;;6.50;99.90;;;;;;5077654;28;20431;-54
2023/02/25 04:23:15;;;;;;;0.90;0.30;;;6.50;99.90;;;;;;5077328;28;20420;-50
2023/02/25 04:25:43;;;;;;;0.70;0.32;;;6.50;99.90;;;;;;5077027;28;20451;-52
2023/02/25 04:28:11;;;;;;;1.40;0.40;;;6.30;99.90;;;;;;5077139;28;20492;-54
2023/02/25 04:30:38;;;;;;;0.70;0.40;;;6.30;99.90;;;;;;5076820;28;20779;-55
2023/02/25 04:33:05;;;;;;;1.13;0.30;;;6.00;99.90;;;;;;5076537;28;20422;-54
2023/02/25 04:35:33;;;;;;;0.90;0.40;;;6.00;99.90;;;;;;5076938;28;20423;-56
2023/02/25 04:38:00;;;;;;;1.40;0.47;;;6.10;99.90;;;;;;5076271;28;20431;-56
2023/02/25 04:40:28;;;;;;;0.90;0.30;;;6.10;99.90;;;;;;5076546;28;20419;-52
2023/02/25 04:42:56;;;;;;;0.53;0.30;;;6.10;99.90;;;;;;5076496;28;20419;-55
2023/02/25 04:45:24;;;;;;;1.13;0.32;;;6.10;99.90;;;;;;5076686;28;21017;-56
2023/02/25 04:47:53;;;;;;;0.90;0.30;;;6.20;99.90;;;;;;5074597;28;20423;-56
2023/02/25 04:50:21;;;;;;;1.60;0.40;;;6.10;99.90;;;;;;5075543;28;20475;-54
2023/02/25 04:52:48;;;;;;;0.60;0.30;;;6.10;99.90;;;;;;5077049;28;20423;-54
2023/02/25 04:55:17;;;;;;;0.95;0.40;;;6.10;99.90;;;;;;5077093;28;20431;-55
2023/02/25 04:57:45;;;;;;;1.10;0.30;;;6.20;99.90;;;;;;5077107;28;20412;-54
2023/02/25 05:00:17;;;;;;;0.70;0.30;;;6.30;99.90;;;;;;5076850;28;20423;-59
2023/02/25 05:02:45;;;;;;;0.60;0.30;;;6.40;99.90;;;;;;5076063;28;20455;-49
2023/02/25 05:05:13;;;;;;;0.80;0.40;;;6.20;99.90;;;;;;5075304;28;20435;-55
2023/02/25 05:07:40;;;;;;;0.93;0.30;;;6.00;99.90;;;;;;5075594;28;20415;-54
2023/02/25 05:10:09;;;;;;;1.70;0.30;;;5.90;99.90;;;;;;5075771;28;20727;-56
2023/02/25 05:12:37;;;;;;;0.70;0.30;;;6.10;99.90;;;;;;5075907;28;20428;-54
2023/02/25 05:15:07;;;;;;;0.77;0.30;;;6.20;99.90;;;;;;5076293;28;20736;-55
2023/02/25 05:17:35;;;;;;;1.27;0.30;;;6.30;99.90;;;;;;5076211;28;20502;-54
2023/02/25 05:20:05;;;;;;;0.82;0.30;;;6.30;99.90;;;;;;5076148;28;20427;-54
2023/02/25 05:22:32;;;;;;;1.00;0.30;;;6.40;99.90;;;;;;5075494;28;20426;-54
2023/02/25 05:25:00;;;;;;;0.47;0.20;;;6.40;99.90;;;;;;5076217;28;20470;-51
2023/02/25 05:27:27;;;;;;;0.70;0.30;;;6.40;99.90;;;;;;5076275;28;20843;-50
2023/02/25 05:29:54;;;;;;;0.55;0.20;;;6.30;99.90;;;;;;5076519;28;20476;-54
2023/02/25 05:32:23;;;;;;;0.50;0.20;;;6.20;99.90;;;;;;5076046;28;20439;-55
2023/02/25 05:34:50;;;;;;;2.10;0.30;;;6.20;99.90;;;;;;5076219;28;20423;-52
2023/02/25 05:37:17;;;;;;;0.40;0.20;;;6.30;99.90;;;;;;5075900;28;20834;-54
2023/02/25 05:39:44;;;;;;;1.00;0.25;;;6.30;99.90;;;;;;5076167;28;20843;-55
2023/02/25 05:42:11;;;;;;;1.30;0.30;;;6.30;99.90;;;;;;5074607;28;20902;-54
2023/02/25 05:44:38;;;;;;;0.80;0.20;;;6.20;99.90;;;;;;5076138;28;20434;-55
2023/02/25 05:47:06;;;;;;;0.60;0.20;;;6.20;99.90;;;;;;5075975;28;20427;-55
2023/02/25 05:49:34;;;;;;;1.27;0.23;;;6.10;99.90;;;;;;5074862;28;20551;-54
2023/02/25 05:52:01;;;;;;;0.90;0.22;;;6.00;99.90;;;;;;5074448;28;20731;-55
2023/02/25 05:54:29;;;;;;;0.50;0.20;;;6.00;99.90;;;;;;5074562;28;20732;-55
2023/02/25 05:56:56;;;;;;;0.50;0.20;;;6.00;99.90;;;;;;5074788;28;20439;-51
2023/02/25 05:59:23;;;;;;;0.70;0.20;;;6.10;99.90;;;;;;5074329;28;20518;-54
2023/02/25 06:01:50;;;;;;;0.80;0.20;;;6.10;99.90;;;;;;5074788;28;20419;-52
2023/02/25 06:04:17;;;;;;;1.05;0.30;;;6.10;99.90;;;;;;5074931;28;20815;-54
2023/02/25 06:06:49;;;;;;;1.00;0.20;;;6.10;99.90;;;;;;5074740;28;20831;-52
2023/02/25 06:09:18;;;;;;;2.30;0.38;;;6.10;99.90;;;;;;5074551;28;20427;-52
2023/02/25 06:11:47;;;;;;;0.80;0.20;;;6.20;99.90;;;;;;5075311;28;20436;-53
2023/02/25 06:14:14;;;;;;;0.50;0.20;;;6.20;99.90;;;;;;5075315;28;20439;-51
2023/02/25 06:16:43;;;;;;;0.83;0.20;;;6.30;99.90;;;;;;5075029;28;20416;-55
2023/02/25 06:19:11;;;;;;;1.95;0.20;;;6.10;99.90;;;;;;5075032;28;20411;-51
2023/02/25 06:21:39;;;;;;;1.67;0.30;;;6.10;99.90;;;;;;5074763;28;20506;-50
2023/02/25 06:24:08;;;;;;;1.45;0.30;;;6.00;99.90;;;;;;5073957;28;20578;-53
2023/02/25 06:26:40;;;;;;;0.90;0.20;;;6.00;99.90;;;;;;5073910;28;20842;-52
2023/02/25 06:29:08;;;;;;;0.60;0.22;;;6.20;99.90;;;;;;5073133;28;20411;-54
2023/02/25 06:31:35;;;;;;;0.45;0.20;;;6.20;99.90;;;;;;5073807;28;20523;-53
2023/02/25 06:34:02;;;;;;;0.80;0.20;;;6.40;99.90;;;;;;5074117;28;20415;-51
2023/02/25 06:36:29;;;;;;;0.63;0.20;;;6.70;99.90;;;;;;5074005;28;20415;-52
2023/02/25 06:38:56;;;;;;;0.60;0.20;;;6.70;99.90;;;;;;5073929;28;20419;-51
2023/02/25 06:41:25;;;;;;;0.60;0.20;;;6.50;99.90;;;;;;5073178;28;20423;-48
2023/02/25 06:43:52;;;;;;;0.50;0.30;;;6.50;99.90;;;;;;5073649;28;20431;-51
2023/02/25 06:46:22;;;;;;;0.40;0.20;;;6.50;99.90;;;;;;5074908;28;20431;-51
2023/02/25 06:48:49;;;;;;;1.90;0.20;;;6.40;99.90;;;;;;5074077;28;20781;-52
2023/02/25 06:51:16;;;;;;;0.70;0.30;;;6.20;99.90;;;;;;5073616;28;20856;-52
2023/02/25 06:53:46;;;;;;;0.90;0.30;;;6.00;99.90;;;;;;5076415;28;20423;-52
2023/02/25 06:56:14;;;;;;;1.70;0.40;;;6.00;99.90;;;;;;5078602;28;20521;-54
2023/02/25 06:58:43;;;;;;;0.68;0.30;;;5.70;99.90;;;;;;5077754;28;20850;-51
2023/02/25 07:01:12;;;;;;;1.02;0.40;;;5.30;99.90;;;;;;5077755;28;20423;-52
2023/02/25 07:03:40;;;;;;;0.80;0.30;;;5.20;99.90;;;;;;5076375;28;20415;-52
2023/02/25 07:06:07;;;;;;;1.60;0.30;;;5.50;99.90;;;;;;5077891;28;20423;-51
2023/02/25 07:08:34;;;;;;;0.50;0.30;;;5.80;99.90;;;;;;5078007;28;20445;-53
2023/02/25 07:11:11;;;;;;;0.70;0.30;;;6.30;99.90;;;;;;5079795;28;20442;-54
2023/02/25 07:13:38;;;;;;;0.70;0.30;;;6.60;99.90;;;;;;5078671;28;20738;-54
2023/02/25 07:16:07;;;;;;;0.50;0.20;;;6.80;99.90;;;;;;5079085;28;20851;-50
2023/02/25 07:18:34;;;;;;;1.80;0.30;;;6.60;99.90;;;;;;5079687;28;20426;-51
2023/02/25 07:21:02;;;;;;;0.60;0.20;;;6.50;99.90;;;;;;5079919;28;20832;-50
2023/02/25 07:23:29;;;;;;;1.00;0.30;;;6.50;99.90;;;;;;5079384;28;20420;-51
2023/02/25 07:25:56;;;;;;;1.10;0.20;;;6.40;99.90;;;;;;5080692;28;20603;-52
2023/02/25 07:28:23;;;;;;;1.10;0.22;;;6.40;99.90;;;;;;5080731;28;20426;-49
2023/02/25 07:30:50;;;;;;;0.90;0.30;;;6.30;99.90;;;;;;5081574;28;20454;-53
2023/02/25 07:33:19;;;;;;;0.68;0.30;;;5.90;99.90;;;;;;5080367;28;20431;-50
2023/02/25 07:35:46;;;;;;;0.93;0.30;;;5.70;99.90;;;;;;5079780;28;20423;-48
2023/02/25 07:38:13;;;;;;;0.70;0.30;;;5.70;99.90;;;;;;5079320;28;20415;-52
2023/02/25 07:40:41;;;;;;;1.20;0.30;;;5.90;99.90;;;;;;5080048;28;20481;-53
2023/02/25 07:43:08;;;;;;;0.70;0.20;;;6.20;99.90;;;;;;5080351;28;20524;-50
2023/02/25 07:45:35;;;;;;;0.60;0.30;;;6.50;99.90;;;;;;5080649;28;20843;-53
2023/02/25 07:48:02;;;;;;;1.35;0.30;;;6.60;99.90;;;;;;5080054;28;20463;-56
2023/02/25 07:50:31;;;;;;;0.80;0.20;;;6.50;99.90;;;;;;5079355;28;20465;-54
2023/02/25 07:52:58;;;;;;;0.60;0.20;;;6.80;99.90;;;;;;5079987;28;20431;-51
2023/02/25 07:55:25;;;;;;;1.00;0.30;;;7.20;99.90;;;;;;5080576;28;20481;-53
2023/02/25 07:57:52;;;;;;;0.50;0.20;;;7.10;99.90;;;;;;5079520;28;20730;-54
2023/02/25 08:00:20;;;;;;;1.40;0.20;;;6.90;99.90;;;;;;5079839;28;20889;-49
2023/02/25 08:02:47;;;;;;;0.80;0.20;;;6.80;99.90;;;;;;5079223;28;20423;-51
2023/02/25 08:05:14;;;;;;;1.00;0.23;;;6.90;99.90;;;;;;5078364;28;20435;-53
2023/02/25 08:07:42;;;;;;;1.70;0.20;;;6.60;99.90;;;;;;5076355;28;20869;-54
2023/02/25 08:10:10;;;;;;;0.90;0.20;;;6.60;99.90;;;;;;5076956;28;20438;-52
2023/02/25 08:12:38;;;;;;;0.50;0.30;;;6.80;99.90;;;;;;5076827;28;20431;-51
2023/02/25 08:15:07;;;;;;;1.30;0.30;;;6.40;99.90;;;;;;5076307;28;20554;-53
2023/02/25 08:17:35;;;;;;;1.00;0.20;;;6.60;99.90;;;;;;5077036;28;20423;-48
2023/02/25 08:20:03;;;;;;;0.88;0.20;;;6.50;99.90;;;;;;5077127;28;20522;-50
2023/02/25 08:22:30;;;;;;;0.90;0.20;;;6.50;99.90;;;;;;5075569;28;20552;-48
2023/02/25 08:24:59;;;;;;;0.60;0.20;;;6.70;99.90;;;;;;5075294;28;20843;-48
2023/02/25 08:27:26;;;;;;;0.80;0.20;;;7.20;99.90;;;;;;5074101;28;20704;-50
2023/02/25 08:29:53;;;;;;;0.50;0.25;;;7.20;99.90;;;;;;5073538;28;20422;-50
2023/02/25 08:32:21;;;;;;;0.50;0.20;;;7.20;99.90;;;;;;5086760;28;20434;-54
2023/02/25 08:34:50;;;;;;;1.10;0.20;;;7.30;99.90;;;;;;5093765;28;20438;-52
2023/02/25 08:37:18;;;;;;;1.00;0.20;;;7.40;99.90;;;;;;5081841;28;20435;-48
2023/02/25 08:39:45;;;;;;;0.50;0.30;;;7.20;99.90;;;;;;5075062;28;20763;-51
2023/02/25 08:42:17;;;;;;;1.90;0.40;;;7.20;99.90;;;;;;5076804;28;20408;-50
2023/02/25 08:44:44;;;;;;;0.60;0.30;;;7.30;99.90;;;;;;5076535;28;20438;-52
2023/02/25 08:47:11;;;;;;;2.10;0.30;;;7.50;99.90;;;;;;5075561;28;20717;-49
2023/02/25 08:49:39;;;;;;;1.63;0.40;;;7.50;99.90;;;;;;5074876;28;20431;-53
2023/02/25 08:52:08;;;;;;;0.90;0.30;;;7.30;99.90;;;;;;5074461;28;20431;-53
2023/02/25 08:54:36;;;;;;;1.58;0.40;;;7.20;99.90;;;;;;5076071;28;20532;-54
2023/02/25 08:57:03;;;;;;;0.70;0.30;;;7.10;99.90;;;;;;5091048;28;20422;-52
2023/02/25 08:59:34;;;;;;;0.50;0.30;;;7.10;99.90;;;;;;5090403;28;20594;-52
2023/02/25 09:02:01;;;;;;;2.00;0.30;;;7.10;99.90;;;;;;5094852;28;20505;-51
2023/02/25 09:04:29;;;;;;;0.70;0.20;;;7.00;99.90;;;;;;5094684;28;20447;-52
2023/02/25 09:06:57;;;;;;;1.50;0.30;;;6.90;99.90;;;;;;5084069;28;20424;-49
2023/02/25 09:09:24;;;;;;;0.90;0.30;;;6.80;99.90;;;;;;5073018;28;20831;-50
2023/02/25 09:11:51;;;;;;;0.82;0.40;;;6.70;99.90;;;;;;5075461;28;20439;-53
2023/02/25 09:14:19;;;;;;;0.90;0.30;;;6.90;99.90;;;;;;5077518;28;20734;-54
2023/02/25 09:16:48;;;;;;;1.42;0.30;;;6.80;99.90;;;;;;5091659;28;20835;-51
2023/02/25 09:19:16;;;;;;;0.70;0.30;;;7.00;99.90;;;;;;5091693;28;20494;-48
2023/02/25 09:21:46;;;;;;;0.80;0.20;;;7.20;99.90;;;;;;5093060;28;20406;-50
2023/02/25 09:24:14;;;;;;;1.27;0.40;;;7.20;99.90;;;;;;5093758;28;20809;-50
2023/02/25 09:26:41;;;;;;;1.00;0.30;;;7.30;99.90;;;;;;5095153;28;20422;-50
2023/02/25 09:29:08;;;;;;;0.70;0.30;;;7.40;99.90;;;;;;5092358;28;20453;-51
2023/02/25 09:31:36;;;;;;;1.00;0.30;;;7.10;99.90;;;;;;5088431;28;20424;-53
2023/02/25 09:34:07;;;;;;;2.80;0.30;;;6.80;99.90;;;;;;5091470;28;20426;-53
2023/02/25 09:36:35;;;;;;;0.60;0.20;;;6.70;99.90;;;;;;5090736;28;20719;-49
2023/02/25 09:39:06;;;;;;;3.50;0.60;;;6.80;99.90;;;;;;5091673;28;20784;-51
2023/02/25 09:41:39;;;;;;;0.95;0.30;;;6.60;99.90;;;;;;5087347;28;20425;-52
2023/02/25 09:44:10;;;;;;;0.50;0.20;;;7.00;99.90;;;;;;5092219;28;20413;-54
2023/02/25 09:46:42;;;;;;;0.50;0.17;;;6.90;99.90;;;;;;5090011;28;20868;-55
2023/02/25 09:49:18;;;;;;;1.80;0.10;;;7.10;99.90;;;;;;5092293;28;20869;-53
2023/02/25 09:51:51;;;;;;;0.50;0.20;;;7.60;99.90;;;;;;5091834;28;20512;-52
2023/02/25 09:54:29;;;;;;;0.50;0.20;;;7.90;99.90;;;;;;5087648;28;20502;-53
2023/02/25 09:56:59;;;;;;;0.60;0.10;;;8.00;99.90;;;;;;5090956;28;20413;-53
2023/02/25 09:59:28;;;;;;;0.70;0.10;;;8.10;99.90;;;;;;5092939;28;20483;-51
2023/02/25 10:01:59;;;;;;;0.40;0.20;;;8.10;99.90;;;;;;5090918;28;20418;-51
2023/02/25 10:04:36;;;;;;;0.40;0.10;;;8.10;99.90;;;;;;5090453;28;20433;-55
2023/02/25 10:07:13;;;;;;;0.70;0.20;;;8.10;99.90;;;;;;5091909;28;20441;-55
2023/02/25 10:09:50;;;;;;;0.40;0.10;;;8.30;99.90;;;;;;5090526;28;20491;-55
2023/02/25 10:12:26;;;;;;;0.70;0.20;;;8.00;99.90;;;;;;5092854;28;20542;-53
2023/02/25 10:15:20;;;;;;;0.50;0.10;;;8.30;99.90;;;;;;5092149;28;20433;-52
2023/02/25 10:18:03;;;;;;;0.45;0.20;;;8.30;99.90;;;;;;5087774;28;20836;-55
2023/02/25 10:20:48;;;;;;;0.40;0.20;;;8.30;99.90;;;;;;5077779;28;20434;-53
2023/02/25 10:23:27;;;;;;;0.40;0.20;;;8.40;99.90;;;;;;5091285;28;20429;-55
2023/02/25 10:25:58;;;;;;;1.60;0.20;;;8.50;99.90;;;;;;5091305;28;20440;-49
2023/02/25 10:28:26;;;;;;;0.50;0.20;;;8.80;99.90;;;;;;5090094;28;20876;-54
2023/02/25 10:30:59;;;;;;;0.83;0.20;;;8.70;99.90;;;;;;5091505;28;21045;-54
2023/02/25 10:33:31;;;;;;;0.63;0.20;;;8.50;99.90;;;;;;5092729;28;20528;-52
2023/02/25 10:36:08;;;;;;;0.57;0.20;;;8.30;99.90;;;;;;5091058;28;20452;-52
2023/02/25 10:38:40;;;;;;;0.60;0.20;;;8.10;99.90;;;;;;5090471;28;20491;-53
2023/02/25 10:41:08;;;;;;;0.40;0.20;;;8.00;99.90;;;;;;5090888;28;20426;-52
2023/02/25 10:43:35;;;;;;;0.90;0.23;;;8.10;99.90;;;;;;5082750;28;20780;-54
2023/02/25 10:46:09;;;;;;;0.60;0.30;;;8.30;99.90;;;;;;5084695;28;20441;-53
2023/02/25 10:48:37;;;;;;;0.60;0.20;;;8.30;99.90;;;;;;5085835;28;20491;-54
2023/02/25 10:51:11;;;;;;;0.40;0.20;;;8.10;99.90;;;;;;5088476;28;20444;-50
2023/02/25 10:53:39;;;;;;;0.57;0.20;;;8.00;99.90;;;;;;5080195;28;20855;-51
2023/02/25 10:56:07;;;;;;;0.82;0.20;;;7.90;99.90;;;;;;5090177;28;20453;-51
2023/02/25 10:58:39;;;;;;;0.32;0.20;;;8.30;99.90;;;;;;5092118;28;21028;-56
2023/02/25 11:01:13;;;;;;;0.90;0.20;;;7.90;99.90;;;;;;5088789;28;20433;-54
2023/02/25 11:03:53;;;;;;;0.90;0.20;;;7.70;99.90;;;;;;5090246;28;20491;-52
2023/02/25 11:06:24;;;;;;;0.40;0.20;;;7.70;99.90;;;;;;5086745;28;20847;-52
2023/02/25 11:08:53;;;;;;;0.60;0.20;;;7.80;99.90;;;;;;5082033;28;20442;-51
2023/02/25 11:11:23;;;;;;;0.63;0.20;;;8.00;99.90;;;;;;5086249;28;20440;-52
2023/02/25 11:13:59;;;;;;;0.40;0.10;;;7.70;99.90;;;;;;5085933;28;20433;-51
2023/02/25 11:16:28;;;;;;;0.40;0.20;;;8.10;99.90;;;;;;5088989;28;20437;-53
2023/02/25 11:18:58;;;;;;;1.05;0.20;;;8.00;99.90;;;;;;5088991;28;20465;-53
2023/02/25 11:21:33;;;;;;;0.50;0.20;;;7.80;99.90;;;;;;5087030;28;20437;-55
2023/02/25 11:24:12;;;;;;;0.70;0.20;;;8.00;99.90;;;;;;5089878;28;20429;-49
2023/02/25 11:26:43;;;;;;;0.75;0.20;;;8.00;99.90;;;;;;5085782;28;20418;-52
2023/02/25 11:29:14;;;;;;;0.75;0.20;;;7.90;99.90;;;;;;5091845;28;20425;-53
2023/02/25 11:31:43;;;;;;;0.40;0.20;;;8.10;99.90;;;;;;5090914;28;20422;-53
2023/02/25 11:34:16;;;;;;;0.55;0.20;;;8.20;99.90;;;;;;5089459;28;20429;-51
2023/02/25 11:36:45;;;;;;;0.40;0.20;;;8.40;99.90;;;;;;5091736;28;20413;-51
2023/02/25 11:39:19;;;;;;;1.20;0.20;;;8.40;99.90;;;;;;5089204;28;20417;-51
2023/02/25 11:41:48;;;;;;;0.50;0.20;;;8.20;99.90;;;;;;5094420;28;20865;-54
2023/02/25 11:44:29;;;;;;;0.50;0.20;;;8.40;99.90;;;;;;5096045;28;20717;-55
2023/02/25 11:47:06;;;;;;;0.82;0.30;;;8.40;99.90;;;;;;5095632;28;20433;-53
2023/02/25 11:50:08;;;;;;;0.90;0.30;;;8.40;99.90;;;;;;5093925;28;20861;-53
2023/02/25 11:52:42;;;;;;;0.50;0.30;;;8.40;99.90;;;;;;5012543;28;20441;-51
2023/02/25 11:55:19;;;;;;;0.52;0.20;;;8.60;99.90;;;;;;5077914;28;20437;-53
2023/02/25 11:57:58;;;;;;;0.50;0.20;;;8.50;99.90;;;;;;5095003;28;20433;-54
2023/02/25 12:00:32;;;;;;;0.60;0.20;;;8.30;99.90;;;;;;5094328;28;20437;-53
2023/02/25 12:03:29;;;;;;;0.75;0.20;;;8.20;99.90;;;;;;5091936;28;20930;-54
2023/02/25 12:06:07;;;;;;;0.50;0.20;;;8.20;99.90;;;;;;5091218;28;20444;-52
2023/02/25 12:08:46;;;;;;;0.35;0.20;;;8.10;99.90;;;;;;5096220;28;20513;-54
2023/02/25 12:11:49;;;;;;;0.70;0.20;;;8.10;99.90;;;;;;5089963;28;20438;-52
2023/02/25 12:14:50;;;;;;;0.90;0.30;;;8.20;99.90;;;;;;5093707;28;20452;-52
2023/02/25 12:17:46;;;;;;;1.40;0.30;;;8.10;99.90;;;;;;5089122;28;20422;-54
2023/02/25 12:20:49;;;;;;;0.87;0.20;;;8.00;99.90;;;;;;5072239;28;20500;-52
2023/02/25 12:23:51;;;;;;;0.50;0.30;;;8.10;99.90;;;;;;5075744;28;20840;-48
2023/02/25 12:26:31;;;;;;;0.60;0.30;;;7.90;99.90;;;;;;5052416;28;20415;-53
2023/02/25 12:29:13;;;;;;;0.57;0.20;;;7.70;99.90;;;;;;5094041;28;20422;-54
2023/02/25 12:32:07;;;;;;;0.88;0.40;;;7.60;99.90;;;;;;5084558;28;20433;-52
2023/02/25 12:34:59;;;;;;;0.90;0.30;;;7.70;99.90;;;;;;5094495;28;20434;-50
2023/02/25 12:37:42;;;;;;;0.73;0.20;;;7.40;99.90;;;;;;5094703;28;20745;-53
2023/02/25 12:40:32;;;;;;;2.75;1.00;;;7.50;99.90;;;;;;5092025;28;20445;-53
2023/02/25 12:43:12;;;;;;;1.55;0.60;;;7.60;99.90;;;;;;5093363;28;20825;-53
2023/02/25 12:46:00;;;;;;;1.00;0.40;;;7.60;99.90;;;;;;5093767;28;20426;-54
2023/02/25 12:48:57;;;;;;;0.52;0.30;;;7.50;99.90;;;;;;5079943;28;20422;-51
2023/02/25 12:51:44;;;;;;;0.70;0.30;;;7.40;99.90;;;;;;5072545;28;20831;-55
2023/02/25 12:54:33;;;;;;;1.20;0.30;;;7.30;99.90;;;;;;5072389;28;20428;-52
2023/02/25 12:57:25;;;;;;;0.60;0.30;;;7.40;99.90;;;;;;5091945;28;20422;-53
2023/02/25 13:00:29;;;;;;;1.70;0.40;;;7.40;99.90;;;;;;5090733;28;20433;-54
2023/02/25 13:03:20;;;;;;;0.47;0.28;;;7.10;99.90;;;;;;5085322;28;20433;-53
2023/02/25 13:06:20;;;;;;;0.80;0.40;;;7.10;99.90;;;;;;5094488;28;20979;-51
2023/02/25 13:09:14;;;;;;;2.63;0.60;;;7.30;99.90;;;;;;5050517;28;20429;-56
2023/02/25 13:11:56;;;;;;;0.70;0.40;;;7.20;99.90;;;;;;5091555;28;20425;-49
2023/02/25 13:14:39;;;;;;;0.90;0.40;;;6.90;99.90;;;;;;5092571;28;20748;-55
2023/02/25 13:17:27;;;;;;;1.10;0.40;;;6.90;99.90;;;;;;5092017;28;20432;-50
2023/02/25 13:20:39;;;;;;;0.60;0.30;;;7.00;99.90;;;;;;5090680;28;20430;-53
2023/02/25 13:23:20;;;;;;;1.10;0.40;;;7.00;99.90;;;;;;5029543;28;20469;-53